Time;durP1;ratioP1;P1;durP2;ratioP2;P2;SDS_P1;SDS_P2;PMS_P1;PMS_P2;Temp;Humidity;BMP_temperature;BMP_pressure;BME280_temperature;BME280_humidity;BME280_pressure;Samples;Min_cycle;Max_cycle;Signal;HPM_P1;HPM_P2
2022/06/01 00:00:42;;;;;;;12.43;9.13;;;11.40;99.90;;;;;;4948895;29;20103;-51
2022/06/01 00:03:08;;;;;;;12.10;8.98;;;11.40;99.90;;;;;;4953068;29;20094;-53
2022/06/01 00:05:34;;;;;;;13.63;8.35;;;11.20;99.90;;;;;;4980277;28;20055;-52
2022/06/01 00:08:00;;;;;;;14.02;9.27;;;11.10;99.90;;;;;;4971273;28;20066;-50
2022/06/01 00:10:27;;;;;;;12.95;9.63;;;11.20;99.90;;;;;;4961723;29;20594;-52
2022/06/01 00:12:54;;;;;;;11.88;8.85;;;11.10;99.90;;;;;;4950586;29;20047;-50
2022/06/01 00:15:21;;;;;;;13.95;11.60;;;11.00;99.90;;;;;;4952731;29;20100;-52
2022/06/01 00:17:47;;;;;;;15.05;11.45;;;11.00;99.90;;;;;;4952923;29;20050;-51
2022/06/01 00:20:14;;;;;;;14.07;11.25;;;11.10;99.90;;;;;;4963099;29;20055;-52
2022/06/01 00:22:41;;;;;;;12.35;9.65;;;11.30;99.90;;;;;;4945624;29;20059;-53
2022/06/01 00:25:07;;;;;;;13.27;10.10;;;11.00;99.90;;;;;;4963153;29;20071;-52
2022/06/01 00:27:35;;;;;;;16.05;10.65;;;10.70;99.90;;;;;;4950196;29;20031;-50
2022/06/01 00:30:01;;;;;;;15.93;13.02;;;10.60;99.90;;;;;;4936739;29;20090;-49
2022/06/01 00:32:27;;;;;;;15.23;12.45;;;10.70;99.90;;;;;;4943196;29;20048;-51
2022/06/01 00:34:52;;;;;;;17.13;12.57;;;10.80;99.90;;;;;;4956468;29;20050;-51
2022/06/01 00:37:19;;;;;;;17.65;13.93;;;10.90;99.90;;;;;;4958812;29;20047;-51
2022/06/01 00:39:45;;;;;;;15.88;12.60;;;10.90;99.90;;;;;;4962462;29;20043;-51
2022/06/01 00:42:32;;;;;;;17.80;13.00;;;11.00;99.90;;;;;;4949620;29;20044;-50
2022/06/01 00:44:58;;;;;;;13.68;11.55;;;11.10;99.90;;;;;;4960771;28;20044;-53
2022/06/01 00:47:25;;;;;;;15.65;12.98;;;11.20;99.90;;;;;;4952504;29;20065;-52
2022/06/01 00:50:11;;;;;;;15.48;12.98;;;11.10;99.90;;;;;;4955770;29;20047;-51
2022/06/01 00:52:45;;;;;;;16.33;12.63;;;11.10;99.90;;;;;;4962281;29;20061;-52
2022/06/01 00:55:21;;;;;;;16.80;13.20;;;11.20;99.90;;;;;;4950532;29;20058;-51
2022/06/01 00:57:54;;;;;;;16.15;12.45;;;11.20;99.90;;;;;;4961484;29;20051;-51
2022/06/01 01:00:24;;;;;;;19.10;13.75;;;11.20;99.90;;;;;;4963022;29;20122;-53
2022/06/01 01:02:55;;;;;;;15.88;12.93;;;11.10;99.90;;;;;;4944545;29;20062;-52
2022/06/01 01:05:22;;;;;;;18.50;14.85;;;11.20;99.90;;;;;;4977504;28;20050;-49
2022/06/01 01:07:51;;;;;;;16.45;12.18;;;11.40;99.90;;;;;;4981745;28;20038;-52
2022/06/01 01:10:18;;;;;;;17.00;14.25;;;11.10;99.90;;;;;;4981024;28;20043;-52
2022/06/01 01:12:56;;;;;;;18.27;14.23;;;11.00;99.90;;;;;;4980456;28;20042;-51
2022/06/01 01:15:24;;;;;;;16.67;14.60;;;11.00;99.90;;;;;;4961467;29;20050;-51
2022/06/01 01:17:52;;;;;;;17.38;13.68;;;11.10;99.90;;;;;;4961637;29;20051;-51
2022/06/01 01:20:19;;;;;;;16.30;13.15;;;11.10;99.90;;;;;;4950134;29;20083;-50
2022/06/01 01:22:52;;;;;;;17.67;14.00;;;11.10;99.90;;;;;;4939621;29;20063;-49
2022/06/01 01:25:33;;;;;;;15.38;12.32;;;11.10;99.90;;;;;;4962032;29;20057;-51
2022/06/01 01:28:01;;;;;;;19.00;14.50;;;11.10;99.90;;;;;;4961017;29;20047;-49
2022/06/01 01:30:38;;;;;;;15.48;12.52;;;11.10;99.90;;;;;;4962215;29;20039;-52
2022/06/01 01:33:08;;;;;;;17.92;13.30;;;11.00;99.90;;;;;;4961533;29;20040;-51
2022/06/01 01:35:34;;;;;;;18.42;15.15;;;10.90;99.90;;;;;;4961487;29;20047;-49
2022/06/01 01:38:06;;;;;;;18.70;13.77;;;11.10;99.90;;;;;;4947181;29;20054;-53
2022/06/01 01:40:32;;;;;;;16.88;14.80;;;11.00;99.90;;;;;;4948462;29;20113;-51
2022/06/01 01:43:00;;;;;;;18.52;15.80;;;10.90;99.90;;;;;;4957624;29;20058;-52
2022/06/01 01:45:31;;;;;;;19.83;16.05;;;11.00;99.90;;;;;;4941908;29;20083;-50
2022/06/01 01:47:57;;;;;;;18.98;15.25;;;11.00;99.90;;;;;;4936461;29;20047;-53
2022/06/01 01:50:24;;;;;;;19.10;16.70;;;11.10;99.90;;;;;;4961196;29;20062;-51
2022/06/01 01:52:51;;;;;;;19.02;15.93;;;11.10;99.90;;;;;;4946661;29;20043;-51
2022/06/01 01:55:29;;;;;;;18.65;16.25;;;11.00;99.90;;;;;;4936508;29;20047;-52
2022/06/01 01:58:10;;;;;;;18.83;16.75;;;11.00;99.90;;;;;;4948149;29;20105;-52
2022/06/01 02:01:00;;;;;;;21.02;16.88;;;11.00;99.90;;;;;;4961647;29;20051;-52
2022/06/01 02:03:36;;;;;;;20.60;17.10;;;11.10;99.90;;;;;;4961259;28;20081;-51
2022/06/01 02:06:23;;;;;;;20.30;17.13;;;11.00;99.90;;;;;;4980032;28;20550;-51
2022/06/01 02:08:57;;;;;;;21.65;18.08;;;11.00;99.90;;;;;;4963896;28;20089;-49
2022/06/01 02:14:42;;;;;;;19.30;16.70;;;11.00;99.90;;;;;;4952053;29;20085;-52
2022/06/01 02:17:29;;;;;;;20.48;16.52;;;10.90;99.90;;;;;;4953575;29;20102;-51
2022/06/01 02:20:00;;;;;;;20.45;16.45;;;11.00;99.90;;;;;;4943312;29;20047;-52
2022/06/01 02:22:26;;;;;;;22.13;17.52;;;11.00;99.90;;;;;;4956552;29;20122;-53
2022/06/01 02:24:52;;;;;;;20.38;16.25;;;11.00;99.90;;;;;;4941959;29;20043;-50
2022/06/01 02:27:21;;;;;;;21.00;16.98;;;11.00;99.90;;;;;;4943969;29;20491;-52
2022/06/01 02:29:52;;;;;;;17.98;15.77;;;11.00;99.90;;;;;;4954573;29;20051;-52
2022/06/01 02:32:20;;;;;;;18.80;15.00;;;10.90;99.90;;;;;;4959057;29;20044;-51
2022/06/01 02:34:48;;;;;;;19.27;15.10;;;10.80;99.90;;;;;;4942030;29;20047;-54
2022/06/01 02:37:16;;;;;;;21.50;16.42;;;10.80;99.90;;;;;;4941494;29;20051;-52
2022/06/01 02:39:47;;;;;;;21.80;18.27;;;10.80;99.90;;;;;;4941323;29;20428;-54
2022/06/01 02:42:25;;;;;;;20.90;17.08;;;10.90;99.90;;;;;;4950020;29;20028;-51
2022/06/01 02:44:54;;;;;;;22.25;18.65;;;10.90;99.90;;;;;;4957218;29;20041;-50
2022/06/01 02:47:20;;;;;;;22.98;18.35;;;10.90;99.90;;;;;;4958681;29;20047;-50
2022/06/01 02:49:46;;;;;;;20.50;17.27;;;10.90;99.90;;;;;;4941225;29;20127;-49
2022/06/01 02:52:12;;;;;;;22.13;18.75;;;10.90;99.90;;;;;;4949914;29;20504;-51
2022/06/01 02:54:37;;;;;;;21.45;18.55;;;10.80;99.90;;;;;;4960314;29;20043;-50
2022/06/01 02:57:04;;;;;;;21.13;16.23;;;10.90;99.90;;;;;;4957063;29;20090;-52
2022/06/01 02:59:29;;;;;;;21.80;18.45;;;10.90;99.90;;;;;;4960968;29;20055;-49
2022/06/01 03:01:55;;;;;;;22.20;18.00;;;10.70;99.90;;;;;;4960046;29;20303;-51
2022/06/01 03:04:21;;;;;;;20.05;17.75;;;10.90;99.90;;;;;;4950011;28;20050;-53
2022/06/01 03:06:46;;;;;;;21.50;19.20;;;10.90;99.90;;;;;;4979476;28;20126;-51
2022/06/01 03:09:12;;;;;;;20.27;17.67;;;10.80;99.90;;;;;;4981075;28;20076;-50
2022/06/01 03:11:37;;;;;;;20.83;17.60;;;10.80;99.90;;;;;;4983581;28;20043;-51
2022/06/01 03:14:03;;;;;;;20.75;17.55;;;10.70;99.90;;;;;;4972724;28;20050;-50
2022/06/01 03:16:29;;;;;;;23.05;18.92;;;10.70;99.90;;;;;;4962953;29;20062;-52
2022/06/01 03:18:54;;;;;;;20.98;18.50;;;10.70;99.90;;;;;;4958980;29;20059;-50
2022/06/01 03:21:20;;;;;;;21.25;19.00;;;10.80;99.90;;;;;;4963079;29;20050;-51
2022/06/01 03:23:46;;;;;;;21.20;18.20;;;10.60;99.90;;;;;;4963204;29;20103;-51
2022/06/01 03:26:12;;;;;;;23.95;19.67;;;10.70;99.90;;;;;;4956522;29;20051;-51
2022/06/01 03:28:39;;;;;;;22.88;19.38;;;10.70;99.90;;;;;;4940495;29;20417;-51
2022/06/01 03:31:06;;;;;;;21.30;19.00;;;10.70;99.90;;;;;;4944741;29;20515;-51
2022/06/01 03:33:32;;;;;;;19.60;16.63;;;10.80;99.90;;;;;;4944855;29;20047;-49
2022/06/01 03:35:58;;;;;;;18.42;16.02;;;10.80;99.90;;;;;;4927509;29;20044;-52
2022/06/01 03:38:23;;;;;;;17.73;15.07;;;10.60;99.90;;;;;;4954095;29;20102;-53
2022/06/01 03:40:49;;;;;;;19.63;17.30;;;10.60;99.90;;;;;;4963220;29;20045;-49
2022/06/01 03:43:15;;;;;;;21.10;18.80;;;10.60;99.90;;;;;;4962150;29;20122;-51
2022/06/01 03:45:56;;;;;;;22.63;18.27;;;10.70;99.90;;;;;;4963129;29;20043;-49
2022/06/01 03:48:23;;;;;;;22.08;18.15;;;10.70;99.90;;;;;;4946849;29;20141;-49
2022/06/01 03:50:49;;;;;;;21.52;18.70;;;10.70;99.90;;;;;;4944877;29;20436;-53
2022/06/01 03:53:15;;;;;;;21.95;19.05;;;10.70;99.90;;;;;;4947676;29;20051;-53
2022/06/01 03:55:41;;;;;;;19.95;17.33;;;10.60;99.90;;;;;;4962435;29;20074;-51
2022/06/01 03:58:16;;;;;;;22.45;20.05;;;10.70;99.90;;;;;;4954888;29;20051;-49
2022/06/01 04:00:42;;;;;;;23.33;18.75;;;10.70;99.90;;;;;;4963753;29;20047;-51
2022/06/01 04:03:07;;;;;;;23.10;19.83;;;10.70;99.90;;;;;;4963350;29;20043;-51
2022/06/01 04:05:33;;;;;;;22.85;20.20;;;10.70;99.90;;;;;;4980275;28;20043;-51
2022/06/01 04:07:59;;;;;;;24.05;19.75;;;10.90;99.90;;;;;;4975234;28;20099;-50
2022/06/01 04:10:24;;;;;;;22.92;19.10;;;10.80;99.90;;;;;;4982033;28;20070;-52
2022/06/01 04:12:50;;;;;;;22.77;18.70;;;10.80;99.90;;;;;;4965784;28;20106;-53
2022/06/01 04:15:16;;;;;;;24.02;20.33;;;10.90;99.90;;;;;;4982180;28;20066;-52
2022/06/01 04:17:42;;;;;;;23.67;19.27;;;10.90;99.90;;;;;;4982865;28;20142;-52
2022/06/01 04:20:09;;;;;;;23.05;19.73;;;10.90;99.90;;;;;;4958379;28;20044;-50
2022/06/01 04:22:37;;;;;;;25.30;22.55;;;11.00;99.90;;;;;;4958247;29;20058;-52
2022/06/01 04:25:03;;;;;;;23.42;19.77;;;11.00;99.90;;;;;;4957214;29;20040;-50
2022/06/01 04:27:28;;;;;;;24.83;20.90;;;11.00;99.90;;;;;;4950391;29;20043;-52
2022/06/01 04:29:54;;;;;;;23.17;20.25;;;11.00;99.90;;;;;;4956661;29;20523;-52
2022/06/01 04:32:26;;;;;;;22.48;20.08;;;11.10;99.90;;;;;;4950729;29;20490;-50
2022/06/01 04:34:51;;;;;;;22.63;19.58;;;11.30;99.90;;;;;;4963151;29;20036;-50
2022/06/01 04:37:17;;;;;;;24.27;21.83;;;11.20;99.90;;;;;;4945230;29;20043;-49
2022/06/01 04:39:43;;;;;;;24.08;20.45;;;11.30;99.90;;;;;;4944983;29;20039;-53
2022/06/01 04:42:08;;;;;;;23.58;20.27;;;11.30;99.90;;;;;;4962884;29;20069;-52
2022/06/01 04:44:34;;;;;;;24.05;21.48;;;11.40;99.90;;;;;;4962195;29;20074;-49
2022/06/01 04:47:00;;;;;;;22.08;19.60;;;11.50;99.90;;;;;;4963382;29;20074;-50
2022/06/01 04:49:25;;;;;;;23.77;21.33;;;11.40;99.90;;;;;;4952821;29;20139;-52
2022/06/01 04:51:51;;;;;;;24.60;21.10;;;11.50;99.90;;;;;;4960708;29;20031;-51
2022/06/01 04:54:17;;;;;;;24.23;21.40;;;11.40;99.90;;;;;;4957728;29;20053;-53
2022/06/01 04:56:43;;;;;;;24.67;22.08;;;11.40;99.90;;;;;;4932424;29;20060;-52
2022/06/01 04:59:09;;;;;;;25.58;22.20;;;11.40;99.90;;;;;;4961850;29;20101;-51
2022/06/01 05:01:35;;;;;;;26.38;22.08;;;11.50;99.90;;;;;;4959128;29;20074;-54
2022/06/01 05:04:01;;;;;;;25.35;20.20;;;11.50;99.90;;;;;;4959366;28;20050;-53
2022/06/01 05:06:27;;;;;;;24.10;21.50;;;11.50;99.90;;;;;;4963423;28;20067;-52
2022/06/01 05:08:52;;;;;;;23.80;19.52;;;11.50;99.90;;;;;;4962747;29;20082;-53
2022/06/01 05:11:19;;;;;;;24.50;21.80;;;11.60;99.90;;;;;;4957843;29;20040;-52
2022/06/01 05:13:46;;;;;;;23.60;21.00;;;11.50;99.90;;;;;;4925821;29;20100;-52
2022/06/01 05:16:11;;;;;;;24.50;19.55;;;11.50;99.90;;;;;;4942958;29;20052;-53
2022/06/01 05:18:39;;;;;;;23.48;20.08;;;11.40;99.90;;;;;;4942586;29;20114;-51
2022/06/01 05:21:04;;;;;;;22.60;19.23;;;11.30;99.90;;;;;;4943373;29;20052;-51
2022/06/01 05:23:30;;;;;;;24.33;20.92;;;11.30;99.90;;;;;;4952390;29;20028;-52
2022/06/01 05:25:56;;;;;;;23.63;21.13;;;11.40;99.90;;;;;;4960122;29;20071;-52
2022/06/01 05:28:28;;;;;;;24.55;21.45;;;11.50;99.90;;;;;;4943389;29;20047;-48
2022/06/01 05:30:58;;;;;;;28.42;22.90;;;11.40;99.90;;;;;;4942653;29;20052;-52
2022/06/01 05:33:25;;;;;;;25.23;21.95;;;11.30;99.90;;;;;;4957189;29;20138;-52
2022/06/01 05:35:50;;;;;;;24.45;20.92;;;11.30;99.90;;;;;;4957467;29;20058;-53
2022/06/01 05:38:16;;;;;;;27.00;22.83;;;11.50;99.90;;;;;;4926676;29;20055;-50
2022/06/01 05:40:41;;;;;;;26.00;21.92;;;11.40;99.90;;;;;;4948161;29;20067;-51
2022/06/01 05:43:10;;;;;;;24.83;21.33;;;11.50;99.90;;;;;;4959978;29;20134;-50
2022/06/01 05:45:36;;;;;;;23.27;20.77;;;11.80;99.90;;;;;;4949041;29;20048;-53
2022/06/01 05:48:02;;;;;;;24.25;19.95;;;12.10;99.90;;;;;;4942304;29;20051;-50
2022/06/01 05:50:27;;;;;;;22.80;20.38;;;12.50;99.90;;;;;;4909247;29;20055;-51
2022/06/01 05:52:53;;;;;;;23.40;20.80;;;12.70;99.90;;;;;;4941907;29;20146;-51
2022/06/01 05:55:18;;;;;;;24.38;18.95;;;12.90;99.90;;;;;;4950673;29;20065;-52
2022/06/01 05:57:45;;;;;;;20.02;17.23;;;13.20;99.90;;;;;;4960574;29;20093;-51
2022/06/01 06:00:11;;;;;;;23.00;18.63;;;13.10;99.90;;;;;;4961815;29;20135;-54
2022/06/01 06:02:40;;;;;;;26.15;22.48;;;13.00;99.90;;;;;;4960850;29;20384;-53
2022/06/01 06:06:11;;;;;;;28.88;20.27;;;12.70;99.90;;;;;;4940077;29;20079;-58
2022/06/01 06:07:52;;;;;;;28.35;22.55;;;12.50;99.90;;;;;;4950959;29;20523;-58
2022/06/01 06:10:18;;;;;;;32.78;26.45;;;12.40;99.90;;;;;;4942330;29;20055;-60
2022/06/01 06:12:44;;;;;;;37.55;26.42;;;12.30;99.90;;;;;;4935414;29;20062;-58
2022/06/01 06:15:10;;;;;;;30.48;23.88;;;12.10;99.90;;;;;;4921299;29;20083;-58
2022/06/01 06:17:35;;;;;;;26.42;21.67;;;12.00;99.90;;;;;;4939128;29;20051;-57
2022/06/01 06:20:02;;;;;;;25.95;19.58;;;11.60;99.90;;;;;;4957805;29;20050;-58
2022/06/01 06:22:27;;;;;;;25.42;19.38;;;11.40;99.90;;;;;;4957725;29;20132;-57
2022/06/01 06:24:53;;;;;;;23.33;17.92;;;11.30;99.90;;;;;;4940216;29;20073;-57
2022/06/01 06:27:19;;;;;;;19.75;15.88;;;11.10;99.90;;;;;;4927832;29;20058;-57
2022/06/01 06:29:45;;;;;;;18.95;13.73;;;10.80;99.90;;;;;;4939096;29;20052;-57
2022/06/01 06:32:11;;;;;;;13.35;9.20;;;10.70;99.90;;;;;;4955417;29;20051;-57
2022/06/01 06:34:38;;;;;;;12.32;8.38;;;10.70;99.90;;;;;;4953593;28;20039;-56
2022/06/01 06:37:04;;;;;;;11.23;7.30;;;10.60;99.90;;;;;;4942232;29;20060;-56
2022/06/01 06:39:29;;;;;;;8.05;5.60;;;10.60;99.90;;;;;;4942363;29;20043;-58
2022/06/01 06:41:55;;;;;;;8.45;5.65;;;10.30;99.90;;;;;;4944233;28;20138;-56
2022/06/01 06:44:21;;;;;;;8.52;5.78;;;10.30;99.90;;;;;;4945122;28;20058;-56
2022/06/01 06:46:46;;;;;;;11.95;7.53;;;10.20;99.90;;;;;;4944787;29;20133;-55
2022/06/01 06:49:12;;;;;;;13.35;9.02;;;10.40;99.90;;;;;;4943237;29;20074;-54
2022/06/01 06:51:38;;;;;;;10.23;7.38;;;10.50;99.90;;;;;;4942156;29;20047;-54
2022/06/01 06:54:04;;;;;;;12.25;9.65;;;10.50;99.90;;;;;;4944976;29;20051;-55
2022/06/01 06:56:30;;;;;;;13.80;10.65;;;10.60;99.90;;;;;;4942833;29;20063;-56
2022/06/01 06:58:56;;;;;;;14.73;11.35;;;10.80;99.90;;;;;;4927682;29;20058;-55
2022/06/01 07:01:22;;;;;;;10.45;7.25;;;10.80;99.90;;;;;;4945690;29;20039;-54
2022/06/01 07:03:47;;;;;;;11.18;6.85;;;10.90;99.90;;;;;;4946460;28;20043;-54
2022/06/01 07:06:13;;;;;;;9.25;5.50;;;10.80;99.90;;;;;;4941963;29;20043;-53
2022/06/01 07:08:42;;;;;;;9.25;5.90;;;11.00;99.90;;;;;;4949351;28;20040;-55
2022/06/01 07:11:08;;;;;;;6.45;3.42;;;11.10;99.90;;;;;;4929415;28;20058;-53
2022/06/01 07:13:35;;;;;;;5.30;2.25;;;11.00;99.90;;;;;;4949491;28;20082;-55
2022/06/01 07:16:14;;;;;;;4.90;2.10;;;11.00;99.90;;;;;;4949275;28;20047;-53
2022/06/01 07:18:42;;;;;;;5.45;2.50;;;11.10;99.90;;;;;;4948342;28;20058;-53
2022/06/01 07:21:08;;;;;;;5.70;2.47;;;11.20;99.90;;;;;;4946694;28;20110;-53
2022/06/01 07:23:37;;;;;;;4.80;2.63;;;11.50;99.90;;;;;;4959672;28;20053;-54
2022/06/01 07:26:04;;;;;;;5.40;2.95;;;11.40;99.90;;;;;;4943151;28;20043;-55
2022/06/01 07:28:30;;;;;;;6.13;3.25;;;11.50;99.90;;;;;;4964603;28;20043;-55
2022/06/01 07:30:58;;;;;;;8.20;5.60;;;11.70;99.90;;;;;;4966727;28;20553;-55
2022/06/01 07:33:26;;;;;;;7.18;4.00;;;11.80;99.90;;;;;;4963811;28;20035;-55
2022/06/01 07:35:53;;;;;;;7.03;4.10;;;11.90;99.90;;;;;;4965186;28;20046;-56
2022/06/01 07:43:48;;;;;;;5.93;3.80;;;12.00;99.90;;;;;;4962686;28;20070;-54
2022/06/01 07:46:14;;;;;;;5.00;2.90;;;12.00;99.90;;;;;;4964254;28;20050;-52
2022/06/01 07:48:39;;;;;;;5.43;3.03;;;12.00;99.90;;;;;;4966383;28;20043;-53
2022/06/01 07:51:06;;;;;;;5.72;2.78;;;12.10;99.90;;;;;;4966035;28;20055;-54
2022/06/01 07:53:32;;;;;;;6.35;2.83;;;12.10;99.90;;;;;;4964845;28;20081;-55
2022/06/01 07:55:58;;;;;;;4.93;2.60;;;12.10;99.90;;;;;;4966844;28;20047;-53
2022/06/01 07:58:24;;;;;;;5.95;2.22;;;12.10;99.90;;;;;;4969865;28;20113;-53
2022/06/01 08:00:49;;;;;;;4.63;2.53;;;12.30;99.90;;;;;;4969316;28;20122;-52
2022/06/01 08:03:17;;;;;;;5.10;2.45;;;12.60;99.90;;;;;;4970251;28;20043;-51
2022/06/01 08:05:43;;;;;;;4.20;2.13;;;12.80;99.90;;;;;;4940428;28;20047;-55
2022/06/01 08:08:08;;;;;;;4.40;1.92;;;12.90;99.90;;;;;;4946159;28;20077;-52
2022/06/01 08:10:36;;;;;;;4.45;2.15;;;12.70;99.90;;;;;;4960320;28;20062;-53
2022/06/01 08:13:07;;;;;;;5.07;2.00;;;13.00;99.90;;;;;;4962312;29;20098;-52
2022/06/01 08:15:44;;;;;;;3.90;1.98;;;13.10;99.90;;;;;;4962369;29;20605;-53
2022/06/01 08:18:12;;;;;;;4.57;1.85;;;13.40;99.90;;;;;;4958329;29;20408;-52
2022/06/01 08:20:38;;;;;;;4.45;2.00;;;13.70;99.90;;;;;;4943806;29;20043;-53
2022/06/01 08:23:05;;;;;;;4.80;2.60;;;14.00;99.90;;;;;;4952888;28;20039;-54
2022/06/01 08:25:32;;;;;;;4.68;2.58;;;14.10;99.90;;;;;;4970595;28;20046;-51
2022/06/01 08:27:59;;;;;;;5.40;2.90;;;13.50;99.90;;;;;;4962033;29;20422;-53
2022/06/01 08:30:26;;;;;;;7.72;5.00;;;13.40;99.90;;;;;;4961833;29;20051;-52
2022/06/01 08:32:53;;;;;;;7.57;4.80;;;13.50;99.90;;;;;;4962474;29;20063;-50
2022/06/01 08:35:23;;;;;;;5.90;3.17;;;13.60;99.90;;;;;;4962541;29;20459;-53
2022/06/01 08:37:49;;;;;;;5.47;2.80;;;13.50;99.90;;;;;;4962598;29;20043;-55
2022/06/01 08:40:19;;;;;;;6.20;3.17;;;13.30;99.90;;;;;;4966850;28;20034;-54
2022/06/01 08:43:01;;;;;;;5.20;2.90;;;13.30;99.90;;;;;;4975111;28;20039;-55
2022/06/01 08:45:28;;;;;;;6.20;3.58;;;13.70;99.90;;;;;;4963611;28;20073;-51
2022/06/01 08:47:54;;;;;;;6.15;2.95;;;13.70;99.90;;;;;;4955790;29;20078;-53
2022/06/01 08:50:29;;;;;;;5.40;2.55;;;13.70;99.90;;;;;;4942488;29;20058;-53
2022/06/01 08:52:58;;;;;;;5.28;2.90;;;13.80;99.90;;;;;;4952200;29;20400;-53
2022/06/01 08:55:27;;;;;;;5.97;2.60;;;13.90;99.90;;;;;;4951640;29;20103;-53
2022/06/01 08:58:10;;;;;;;4.53;2.40;;;13.90;99.90;;;;;;4957224;29;20055;-55
2022/06/01 09:00:42;;;;;;;5.18;2.70;;;13.90;99.90;;;;;;4961143;29;20059;-53
2022/06/01 09:03:41;;;;;;;6.30;3.42;;;13.60;99.90;;;;;;4950587;29;20044;-54
2022/06/01 09:06:26;;;;;;;5.40;3.00;;;13.70;99.90;;;;;;4889005;29;20061;-54
2022/06/01 09:09:28;;;;;;;6.60;3.92;;;13.80;99.90;;;;;;4943313;29;20051;-54
2022/06/01 09:11:55;;;;;;;5.13;2.88;;;14.20;99.90;;;;;;4954557;29;20063;-54
2022/06/01 09:14:26;;;;;;;5.43;3.10;;;14.40;99.90;;;;;;4961150;29;20047;-54
2022/06/01 09:16:57;;;;;;;5.15;2.30;;;14.70;99.90;;;;;;4962484;29;20054;-53
2022/06/01 09:19:28;;;;;;;5.97;2.83;;;14.40;99.90;;;;;;4944181;29;20654;-55
2022/06/01 09:24:55;;;;;;;5.80;3.10;;;14.80;99.90;;;;;;4944921;29;20055;-55
2022/06/01 09:27:45;;;;;;;4.90;2.67;;;14.90;99.90;;;;;;4956941;29;20056;-54
2022/06/01 09:30:23;;;;;;;4.60;2.22;;;14.80;99.90;;;;;;4958399;29;20083;-54
2022/06/01 09:33:27;;;;;;;4.80;2.35;;;15.00;99.90;;;;;;4941846;29;20063;-52
2022/06/01 09:36:08;;;;;;;3.33;1.55;;;15.30;99.90;;;;;;4944549;29;20061;-55
2022/06/01 09:38:41;;;;;;;4.53;1.40;;;15.30;99.90;;;;;;4961974;29;20047;-53
2022/06/01 09:41:07;;;;;;;2.38;1.23;;;14.90;99.90;;;;;;4960658;29;20047;-55
2022/06/01 09:43:32;;;;;;;3.97;1.33;;;15.10;99.90;;;;;;4961369;29;20043;-54
2022/06/01 09:45:58;;;;;;;3.78;1.63;;;14.80;99.90;;;;;;4943119;29;20305;-54
2022/06/01 09:48:29;;;;;;;3.30;1.58;;;15.10;99.90;;;;;;4941678;29;20048;-54
2022/06/01 09:51:08;;;;;;;3.75;1.80;;;15.30;99.90;;;;;;4947229;29;20055;-53
2022/06/01 09:53:46;;;;;;;3.58;1.60;;;15.30;99.90;;;;;;4950706;29;20057;-52
2022/06/01 09:56:29;;;;;;;4.43;1.90;;;14.90;99.90;;;;;;4958904;29;20074;-55
2022/06/01 10:07:29;;;;;;;5.40;2.55;;;14.70;99.90;;;;;;4970369;28;20049;-53
2022/06/01 10:10:04;;;;;;;4.55;2.17;;;14.80;99.90;;;;;;4961132;28;20047;-53
2022/06/01 10:12:33;;;;;;;3.38;1.48;;;14.70;99.90;;;;;;4961265;29;20047;-54
2022/06/01 10:15:01;;;;;;;3.08;1.35;;;15.00;99.90;;;;;;4960129;29;20043;-55
2022/06/01 10:17:33;;;;;;;3.83;1.45;;;15.00;99.90;;;;;;4946432;29;20360;-53
2022/06/01 10:20:21;;;;;;;3.67;1.48;;;14.70;99.90;;;;;;4941563;29;20043;-54
2022/06/01 10:22:58;;;;;;;3.88;1.70;;;14.80;99.90;;;;;;4923885;29;20538;-53
2022/06/01 10:25:40;;;;;;;3.90;2.05;;;14.80;99.90;;;;;;4941618;29;20050;-53
2022/06/01 10:28:15;;;;;;;4.28;1.75;;;14.50;99.90;;;;;;4955782;29;20255;-52
2022/06/01 10:30:56;;;;;;;4.97;2.20;;;14.40;99.90;;;;;;4951512;29;20103;-52
2022/06/01 10:33:38;;;;;;;4.50;2.10;;;14.20;99.90;;;;;;4941701;29;20047;-50
2022/06/01 10:36:45;;;;;;;2.97;1.40;;;14.10;99.90;;;;;;4927953;29;21066;-51
2022/06/01 10:39:35;;;;;;;6.63;3.25;;;14.10;99.90;;;;;;4947441;29;20412;-53
2022/06/01 10:42:20;;;;;;;5.65;3.10;;;13.80;99.90;;;;;;4938327;29;20091;-54
2022/06/01 10:45:04;;;;;;;5.50;2.67;;;14.00;99.90;;;;;;4959716;29;20055;-54
2022/06/01 10:47:48;;;;;;;5.25;2.97;;;13.70;99.90;;;;;;4960635;29;20097;-52
2022/06/01 10:50:19;;;;;;;4.88;2.28;;;13.40;99.90;;;;;;4960092;29;20047;-53
2022/06/01 10:52:51;;;;;;;4.90;2.20;;;13.40;99.90;;;;;;4945849;29;20051;-51
2022/06/01 10:55:44;;;;;;;5.05;2.33;;;13.20;99.90;;;;;;4948816;29;20039;-54
2022/06/01 10:58:23;;;;;;;6.03;2.58;;;13.30;99.90;;;;;;4952948;29;20063;-51
2022/06/01 11:01:07;;;;;;;6.47;2.85;;;13.40;99.90;;;;;;4956535;29;20048;-53
2022/06/01 11:03:51;;;;;;;6.18;2.92;;;13.80;99.90;;;;;;4943881;28;20071;-53
2022/06/01 11:06:39;;;;;;;4.90;2.17;;;13.60;99.90;;;;;;4966709;28;20051;-53
2022/06/01 11:09:22;;;;;;;3.47;1.73;;;14.00;99.90;;;;;;4944639;29;20040;-54
2022/06/01 11:12:01;;;;;;;4.85;1.92;;;14.00;99.90;;;;;;4949138;29;20047;-53
2022/06/01 11:14:29;;;;;;;3.13;1.30;;;14.70;99.90;;;;;;4957286;29;20126;-53
2022/06/01 11:17:01;;;;;;;4.25;1.80;;;14.60;99.90;;;;;;4966470;28;20360;-54
2022/06/01 11:19:29;;;;;;;4.38;1.95;;;14.90;99.90;;;;;;4945327;28;20043;-53
2022/06/01 11:22:22;;;;;;;3.30;1.52;;;14.70;99.90;;;;;;4968286;28;20523;-53
2022/06/01 11:25:03;;;;;;;3.58;1.55;;;14.70;99.90;;;;;;4941299;29;20098;-52
2022/06/01 11:27:35;;;;;;;3.78;1.40;;;14.60;99.90;;;;;;4941481;28;20053;-54
2022/06/01 11:30:04;;;;;;;2.67;1.30;;;14.70;99.90;;;;;;4971364;28;20404;-54
2022/06/01 11:32:38;;;;;;;3.83;1.48;;;14.90;99.90;;;;;;4973907;28;20035;-52
2022/06/01 11:35:22;;;;;;;2.05;1.10;;;14.90;99.90;;;;;;4974871;28;20074;-53
2022/06/01 11:37:54;;;;;;;1.98;0.90;;;15.30;99.90;;;;;;4954883;29;20071;-53
2022/06/01 11:40:33;;;;;;;3.05;1.40;;;15.30;99.90;;;;;;4931919;29;20047;-52
2022/06/01 11:43:14;;;;;;;3.30;1.60;;;14.90;99.90;;;;;;4944746;29;20032;-55
2022/06/01 11:45:44;;;;;;;3.35;1.40;;;15.00;99.90;;;;;;4953800;29;20550;-54
2022/06/01 11:48:13;;;;;;;3.38;1.40;;;15.30;99.90;;;;;;4956619;29;20038;-54
2022/06/01 11:50:51;;;;;;;4.20;2.30;;;15.50;99.90;;;;;;4948285;29;20047;-55
2022/06/01 11:53:41;;;;;;;4.70;2.40;;;15.40;99.90;;;;;;4943471;29;20126;-54
2022/06/01 11:56:30;;;;;;;4.78;2.08;;;15.40;99.90;;;;;;4958604;29;20131;-54
2022/06/01 11:59:17;;;;;;;5.35;2.30;;;14.70;99.90;;;;;;4954283;29;20058;-54
2022/06/01 12:01:45;;;;;;;4.38;2.35;;;14.80;99.90;;;;;;4962460;29;20057;-53
2022/06/01 12:04:49;;;;;;;4.13;1.85;;;14.70;99.90;;;;;;4970099;28;20084;-52
2022/06/01 12:07:21;;;;;;;4.70;2.13;;;14.50;99.90;;;;;;4981969;28;20066;-54
2022/06/01 12:10:19;;;;;;;3.55;1.70;;;14.30;99.90;;;;;;4972694;28;20075;-55
2022/06/01 12:12:54;;;;;;;3.85;1.80;;;14.60;99.90;;;;;;4956760;29;20055;-53
2022/06/01 12:15:26;;;;;;;5.18;1.80;;;14.90;99.90;;;;;;4930757;28;20096;-54
2022/06/01 12:17:58;;;;;;;;;;;15.30;99.90;;;;;;4953023;28;20050;-55
2022/06/01 12:20:32;;;;;;;4.78;2.20;;;15.30;99.90;;;;;;4964900;28;19928;-52
2022/06/01 12:28:58;;;;;;;5.80;3.42;;;15.30;99.90;;;;;;4954149;29;20103;-54
2022/06/01 12:31:37;;;;;;;7.55;3.65;;;15.00;99.90;;;;;;4962264;29;20049;-54
2022/06/01 12:34:26;;;;;;;7.05;3.45;;;15.10;99.90;;;;;;4966771;28;20055;-53
2022/06/01 12:37:13;;;;;;;6.30;2.88;;;14.90;99.90;;;;;;4981490;28;20165;-54
2022/06/01 12:39:39;;;;;;;5.78;2.80;;;14.70;99.90;;;;;;4975185;28;20047;-52
2022/06/01 12:42:14;;;;;;;5.20;2.60;;;14.30;99.90;;;;;;4960298;29;20121;-51
2022/06/01 12:44:42;;;;;;;5.60;2.72;;;14.30;99.90;;;;;;4945170;29;20052;-53
2022/06/01 12:47:25;;;;;;;6.45;2.60;;;14.10;99.90;;;;;;4961192;29;20051;-53
2022/06/01 12:49:50;;;;;;;;;;;14.00;99.90;;;;;;4962155;29;20122;-53
2022/06/01 12:52:22;;;;;;;5.70;3.17;;;13.80;99.90;;;;;;4943980;29;19937;-56
2022/06/01 12:54:51;;;;;;;7.07;3.60;;;13.60;99.90;;;;;;4956044;29;20047;-56
2022/06/01 12:57:33;;;;;;;5.40;2.60;;;13.50;99.90;;;;;;4964763;28;20070;-57
2022/06/01 13:00:04;;;;;;;5.78;2.90;;;13.10;99.90;;;;;;4963394;28;20403;-58
2022/06/01 13:02:33;;;;;;;6.13;3.30;;;13.20;99.90;;;;;;4961919;29;20043;-57
2022/06/01 13:05:01;;;;;;;6.38;2.55;;;13.30;99.90;;;;;;4957425;28;20043;-57
2022/06/01 13:07:31;;;;;;;4.90;2.22;;;13.20;99.90;;;;;;4981501;28;20102;-57
2022/06/01 13:10:04;;;;;;;5.50;2.35;;;13.40;99.90;;;;;;4979225;28;20093;-57
2022/06/01 13:12:32;;;;;;;5.95;2.80;;;13.40;99.90;;;;;;4957492;29;20047;-56
2022/06/01 13:15:17;;;;;;;5.25;2.58;;;13.60;99.90;;;;;;4942212;29;20111;-56
2022/06/01 13:18:01;;;;;;;6.00;3.17;;;13.60;99.90;;;;;;4947604;29;20058;-55
2022/06/01 13:20:42;;;;;;;5.63;2.42;;;13.80;99.90;;;;;;4961382;29;20078;-56
2022/06/01 13:23:32;;;;;;;5.00;3.00;;;13.80;99.90;;;;;;4950059;29;20103;-56